Time;durP1;ratioP1;P1;durP2;ratioP2;P2;SDS_P1;SDS_P2;PMS_P1;PMS_P2;Temp;Humidity;BMP_temperature;BMP_pressure;BME280_temperature;BME280_humidity;BME280_pressure;Samples;Min_cycle;Max_cycle;Signal;HPM_P1;HPM_P2
2021/04/02 00:00:25;;;;;;;16.35;9.32;;;;;;;6.85;72.66;101064.88;5015108;28;20080;-73
2021/04/02 00:02:52;;;;;;;24.13;10.85;;;;;;;6.82;72.95;101060.56;5015203;28;20061;-73
2021/04/02 00:05:20;;;;;;;15.60;9.32;;;;;;;6.76;72.93;101060.75;5015645;28;20056;-73
2021/04/02 00:07:47;;;;;;;19.52;10.55;;;;;;;6.67;73.20;101059.25;5030859;28;20061;-73
2021/04/02 00:10:22;;;;;;;18.67;9.77;;;;;;;6.55;73.78;101057.81;5018900;28;20049;-73
2021/04/02 00:12:48;;;;;;;16.63;9.90;;;;;;;6.49;73.86;101065.97;5033908;28;20457;-73
2021/04/02 00:15:17;;;;;;;21.90;10.68;;;;;;;6.46;73.89;101060.72;5017836;28;20054;-72
2021/04/02 00:17:50;;;;;;;18.60;10.60;;;;;;;6.42;74.45;101059.09;5019209;28;20537;-71
2021/04/02 00:20:18;;;;;;;22.77;11.35;;;;;;;6.34;74.60;101054.91;5001627;28;20045;-71
2021/04/02 00:22:45;;;;;;;18.88;10.52;;;;;;;6.44;74.16;101065.22;5018798;28;20053;-71
2021/04/02 00:25:13;;;;;;;19.48;10.02;;;;;;;6.42;74.58;101062.59;5018603;28;20136;-72
2021/04/02 00:27:41;;;;;;;15.82;10.38;;;;;;;6.50;73.77;101073.00;5018760;28;20482;-72
2021/04/02 00:30:14;;;;;;;15.40;10.50;;;;;;;6.35;74.71;101061.03;5017422;28;20317;-72
2021/04/02 00:32:41;;;;;;;20.30;10.55;;;;;;;6.28;74.63;101065.66;5018351;28;20482;-72
2021/04/02 00:35:09;;;;;;;18.75;10.63;;;;;;;6.12;75.27;101057.28;5018271;28;20049;-72
2021/04/02 00:37:36;;;;;;;20.08;11.70;;;;;;;6.11;75.34;101067.00;5018220;28;20486;-72
2021/04/02 00:40:22;;;;;;;18.77;10.70;;;;;;;6.02;75.64;101064.63;5018461;28;20104;-73
2021/04/02 00:42:49;;;;;;;18.58;12.18;;;;;;;6.09;75.23;101063.53;5017713;28;20490;-73
2021/04/02 00:45:19;;;;;;;17.05;11.07;;;;;;;6.13;75.33;101058.13;5017090;28;20062;-71
2021/04/02 00:47:47;;;;;;;22.63;12.48;;;;;;;6.00;75.70;101055.81;5018289;28;20049;-73
2021/04/02 00:50:19;;;;;;;22.73;12.27;;;;;;;6.06;74.96;101063.59;5018367;28;20050;-73
2021/04/02 00:52:45;;;;;;;16.65;11.48;;;;;;;5.99;75.65;101054.03;5017972;28;20082;-73
2021/04/02 00:55:13;;;;;;;21.83;11.82;;;;;;;5.89;76.00;101057.88;5016991;28;20145;-73
2021/04/02 00:57:39;;;;;;;19.83;12.18;;;;;;;5.95;75.66;101066.50;5016799;28;20333;-73
2021/04/02 01:00:08;;;;;;;19.52;12.00;;;;;;;5.97;75.72;101066.47;5017838;28;20432;-73
2021/04/02 01:02:34;;;;;;;19.83;11.13;;;;;;;5.80;76.27;101058.97;5033292;28;20087;-73
2021/04/02 01:05:05;;;;;;;17.15;10.68;;;;;;;5.89;76.05;101068.47;5017947;28;20149;-73
2021/04/02 01:07:31;;;;;;;18.70;12.27;;;;;;;5.71;76.87;101058.31;5018147;28;20057;-73
2021/04/02 01:09:57;;;;;;;16.35;11.95;;;;;;;5.76;76.13;101052.00;5017614;28;20046;-73
2021/04/02 01:12:23;;;;;;;20.88;11.20;;;;;;;5.77;76.84;101062.59;5017578;28;20073;-73
2021/04/02 01:14:49;;;;;;;18.65;11.73;;;;;;;5.81;76.33;101058.94;5016720;28;20057;-73
2021/04/02 01:17:21;;;;;;;22.27;11.57;;;;;;;5.73;76.55;101060.06;5017911;28;20050;-73
2021/04/02 01:19:52;;;;;;;21.48;11.50;;;;;;;5.75;76.55;101050.28;5015987;28;20049;-73
2021/04/02 01:22:23;;;;;;;25.02;11.85;;;;;;;5.80;76.10;101059.88;5017719;28;20111;-73
2021/04/02 01:25:09;;;;;;;24.40;11.57;;;;;;;5.73;76.77;101060.06;5017503;28;20053;-73
2021/04/02 01:28:13;;;;;;;19.27;11.85;;;;;;;5.65;76.72;101055.84;5017669;28;20128;-73
2021/04/02 01:30:42;;;;;;;16.15;10.23;;;;;;;5.60;76.87;101054.22;4995711;28;20097;-73
2021/04/02 01:33:10;;;;;;;21.10;10.90;;;;;;;5.49;77.29;101050.06;4995615;28;20047;-73
2021/04/02 01:35:40;;;;;;;17.10;10.95;;;;;;;5.53;77.38;101042.91;5006258;28;20057;-73
2021/04/02 01:38:25;;;;;;;17.52;11.65;;;;;;;5.44;77.64;101044.88;5017336;28;20050;-73
2021/04/02 01:40:57;;;;;;;20.38;11.57;;;;;;;5.41;77.68;101054.69;5017049;28;20053;-72
2021/04/02 01:43:28;;;;;;;20.30;11.45;;;;;;;5.42;77.68;101059.94;5016185;28;20419;-73
2021/04/02 01:45:57;;;;;;;;;;;;;;;5.39;77.87;101051.22;5017720;28;20046;-73
2021/04/02 01:48:25;;;;;;;25.92;11.77;;;;;;;5.37;77.82;101060.94;5016282;28;19928;-73
2021/04/02 01:50:53;;;;;;;17.55;10.93;;;;;;;5.20;78.21;101062.25;5017437;28;20053;-73
2021/04/02 01:53:24;;;;;;;15.65;11.15;;;;;;;5.29;77.68;101062.00;5017882;28;20056;-73
2021/04/02 01:55:52;;;;;;;21.98;11.93;;;;;;;5.23;78.38;101067.44;5017638;28;20061;-73
2021/04/02 01:58:19;;;;;;;21.60;12.77;;;;;;;5.25;78.33;101064.78;5017048;28;20053;-72
2021/04/02 02:00:48;;;;;;;15.85;11.15;;;;;;;5.17;77.98;101064.94;5016907;28;20057;-73
2021/04/02 02:03:16;;;;;;;22.77;11.55;;;;;;;5.05;78.98;101067.91;5016768;28;20050;-74
2021/04/02 02:05:48;;;;;;;20.30;12.18;;;;;;;5.01;79.40;101062.69;5015888;28;20054;-72
2021/04/02 02:08:18;;;;;;;25.60;12.25;;;;;;;5.05;79.12;101067.91;5032612;28;20057;-72
2021/04/02 02:10:46;;;;;;;20.05;11.65;;;;;;;5.02;79.33;101066.19;5016930;28;20056;-73
2021/04/02 02:13:14;;;;;;;21.20;12.07;;;;;;;5.02;79.09;101074.13;5017258;28;20744;-73
2021/04/02 02:15:41;;;;;;;18.45;11.05;;;;;;;5.05;78.72;101059.97;5017173;28;20070;-72
2021/04/02 02:18:15;;;;;;;20.90;12.35;;;;;;;5.15;78.79;101077.34;5016906;28;20065;-73
2021/04/02 02:20:44;;;;;;;16.25;11.32;;;;;;;5.09;78.51;101065.16;5016535;28;20041;-72
2021/04/02 02:23:10;;;;;;;23.67;11.30;;;;;;;5.09;79.05;101069.56;5032070;28;20050;-71
2021/04/02 02:25:37;;;;;;;17.17;10.57;;;;;;;5.02;78.89;101061.75;5031571;28;20053;-71
2021/04/02 02:28:04;;;;;;;21.30;11.35;;;;;;;5.13;78.24;101065.94;5016276;28;20057;-71
2021/04/02 02:30:32;;;;;;;18.75;10.65;;;;;;;5.08;78.17;101070.47;5015417;28;20054;-72
2021/04/02 02:32:58;;;;;;;16.60;10.77;;;;;;;5.03;78.40;101070.59;5016418;28;20060;-72
2021/04/02 02:35:25;;;;;;;19.73;10.27;;;;;;;4.94;78.68;101063.72;5015226;28;20058;-72
2021/04/02 02:37:52;;;;;;;14.80;10.45;;;;;;;4.97;78.51;101068.94;5016178;28;20054;-72
2021/04/02 02:40:27;;;;;;;16.33;10.15;;;;;;;5.01;78.43;101064.47;5031633;28;20054;-71
2021/04/02 02:42:55;;;;;;;16.45;9.75;;;;;;;4.87;79.09;101064.78;5015064;28;20428;-71
2021/04/02 02:45:23;;;;;;;18.88;10.45;;;;;;;4.80;78.56;101031.44;5015870;28;20057;-72
2021/04/02 02:47:49;;;;;;;15.48;9.60;;;;;;;5.07;78.01;101060.81;5015239;28;20510;-71
2021/04/02 02:50:19;;;;;;;14.93;10.38;;;;;;;5.11;77.98;101062.44;5016082;28;20427;-71
2021/04/02 02:52:48;;;;;;;16.02;8.68;;;;;;;5.08;78.03;101068.72;5016002;28;20057;-71
2021/04/02 02:55:16;;;;;;;16.20;9.00;;;;;;;5.07;77.80;101060.81;5015754;28;20121;-72
2021/04/02 02:57:45;;;;;;;16.02;9.00;;;;;;;5.13;77.88;101058.00;5015071;28;20100;-71
2021/04/02 03:00:18;;;;;;;15.38;9.27;;;;;;;5.20;77.88;101059.59;5015995;28;20049;-71
2021/04/02 03:02:48;;;;;;;15.88;8.43;;;;;;;5.06;77.77;101067.00;5015377;28;20563;-71
2021/04/02 03:05:21;;;;;;;16.60;8.15;;;;;;;5.19;77.54;101067.56;5015576;28;20099;-71
2021/04/02 03:07:52;;;;;;;13.93;8.13;;;;;;;5.17;77.04;101062.31;5014652;28;20060;-72
2021/04/02 03:10:19;;;;;;;13.98;8.00;;;;;;;5.08;77.49;101042.25;5015543;28;20077;-72
2021/04/02 03:12:49;;;;;;;14.25;8.05;;;;;;;5.24;77.07;101060.41;5014413;28;20059;-72
2021/04/02 03:15:18;;;;;;;15.52;8.45;;;;;;;5.19;77.23;101054.34;5015895;28;20069;-72
2021/04/02 03:17:50;;;;;;;13.60;8.23;;;;;;;5.13;77.33;101048.28;5015731;28;20076;-72
2021/04/02 03:20:18;;;;;;;13.35;7.30;;;;;;;5.18;77.10;101047.31;5014233;28;20054;-72
2021/04/02 03:22:47;;;;;;;14.75;7.95;;;;;;;5.22;76.71;101049.84;5014637;28;20046;-72
2021/04/02 03:25:19;;;;;;;13.07;7.68;;;;;;;5.25;76.85;101068.31;5015255;28;20402;-73
2021/04/02 03:27:47;;;;;;;14.23;7.47;;;;;;;5.15;77.00;101038.53;5015426;28;20058;-72
2021/04/02 03:30:16;;;;;;;14.30;7.03;;;;;;;5.18;77.01;101064.06;5014240;28;20077;-72
2021/04/02 03:32:45;;;;;;;14.27;7.40;;;;;;;5.00;77.95;101049.47;5015432;28;20104;-72
2021/04/02 03:35:13;;;;;;;18.00;8.52;;;;;;;5.01;77.79;101046.81;5015257;28;20054;-72
2021/04/02 03:37:45;;;;;;;17.67;8.00;;;;;;;5.01;77.78;101054.75;5015173;28;20045;-72
2021/04/02 03:40:15;;;;;;;17.35;8.00;;;;;;;5.14;77.42;101052.66;5015148;28;20045;-72
2021/04/02 03:42:44;;;;;;;18.52;8.57;;;;;;;5.08;77.71;101062.53;5018783;28;20057;-72
2021/04/02 03:45:13;;;;;;;22.27;9.18;;;;;;;4.92;78.16;101056.72;5021542;28;20069;-72
2021/04/02 03:47:42;;;;;;;19.75;10.02;;;;;;;4.85;78.64;101061.31;5021623;28;20076;-72
2021/04/02 03:50:12;;;;;;;20.90;9.48;;;;;;;4.68;79.16;101065.16;5021548;28;20065;-72
2021/04/02 03:52:42;;;;;;;17.63;8.13;;;;;;;4.80;79.19;101057.88;5021983;28;20050;-72
2021/04/02 03:55:13;;;;;;;15.25;8.50;;;;;;;4.80;78.69;101063.16;5022084;28;20076;-72
2021/04/02 03:57:41;;;;;;;20.92;9.18;;;;;;;4.89;78.49;101068.25;5021824;28;20062;-72
2021/04/02 04:00:21;;;;;;;14.57;8.05;;;;;;;4.75;78.91;101061.50;5021578;28;20080;-72
2021/04/02 04:02:49;;;;;;;17.60;9.63;;;;;;;4.73;79.17;101063.31;5021865;28;20054;-72
2021/04/02 04:05:17;;;;;;;15.30;8.85;;;;;;;4.65;79.37;101046.75;5021662;28;20494;-72
2021/04/02 04:07:46;;;;;;;18.58;9.00;;;;;;;4.88;78.46;101066.50;5021410;28;20141;-72
2021/04/02 04:10:17;;;;;;;25.98;10.10;;;;;;;4.86;78.79;101069.19;5020701;28;20050;-72
2021/04/02 04:12:48;;;;;;;17.65;8.73;;;;;;;4.83;78.80;101071.03;5021260;28;20348;-72
2021/04/02 04:15:16;;;;;;;18.87;8.60;;;;;;;4.81;78.77;101064.91;5020537;28;20332;-72
2021/04/02 04:17:45;;;;;;;18.98;9.98;;;;;;;4.82;78.92;101072.81;5021427;28;20302;-73
2021/04/02 04:20:14;;;;;;;15.55;7.50;;;;;;;4.80;78.84;101074.59;5021715;28;20054;-72
2021/04/02 04:22:43;;;;;;;21.00;10.00;;;;;;;4.80;79.00;101071.09;5021216;28;20062;-73
2021/04/02 04:25:11;;;;;;;22.45;9.55;;;;;;;4.74;79.16;101072.97;5024514;28;20046;-72
2021/04/02 04:27:44;;;;;;;21.85;10.70;;;;;;;4.71;79.09;101066.88;5025441;28;20065;-72
2021/04/02 04:30:12;;;;;;;18.05;10.00;;;;;;;4.74;79.27;101067.69;5025532;28;20050;-72
2021/04/02 04:32:42;;;;;;;20.52;9.88;;;;;;;4.71;79.45;101070.41;5042448;28;20431;-71
2021/04/02 04:35:12;;;;;;;20.48;11.10;;;;;;;4.67;79.47;101070.47;5041454;28;20538;-72
2021/04/02 04:37:41;;;;;;;18.33;9.77;;;;;;;4.66;79.45;101074.03;5057524;28;20045;-71
2021/04/02 04:40:11;;;;;;;17.98;10.20;;;;;;;4.61;80.33;101066.22;5040608;28;20129;-71
2021/04/02 04:42:40;;;;;;;20.73;10.10;;;;;;;4.57;80.22;101072.50;5041060;28;20045;-71
2021/04/02 04:45:08;;;;;;;17.70;9.93;;;;;;;4.48;80.62;101068.25;5039791;28;20065;-71
2021/04/02 04:47:35;;;;;;;21.45;12.65;;;;;;;4.37;81.03;101071.13;5021361;28;20054;-71
2021/04/02 04:50:05;;;;;;;19.73;10.30;;;;;;;4.61;80.35;101074.16;5021347;28;20049;-73
2021/04/02 04:52:33;;;;;;;20.92;10.52;;;;;;;4.69;80.00;101076.63;5020072;28;20450;-73
2021/04/02 04:55:03;;;;;;;23.00;10.30;;;;;;;4.78;79.65;101078.22;5017356;28;20455;-72
2021/04/02 04:57:32;;;;;;;17.08;10.68;;;;;;;4.72;79.49;101085.38;5016463;28;20348;-71
2021/04/02 05:00:01;;;;;;;20.23;9.82;;;;;;;4.59;80.18;101087.38;5016895;28;20046;-72
2021/04/02 05:02:29;;;;;;;23.92;10.63;;;;;;;4.60;80.30;101085.63;5017108;28;20057;-71
2021/04/02 05:04:58;;;;;;;17.48;9.98;;;;;;;4.71;80.08;101081.00;5032549;28;20142;-72
2021/04/02 05:07:27;;;;;;;19.10;10.63;;;;;;;4.66;79.82;101089.91;5016539;28;20058;-71
2021/04/02 05:09:56;;;;;;;19.80;10.15;;;;;;;4.66;80.34;101087.25;5016311;28;20420;-72
2021/04/02 05:12:24;;;;;;;23.25;10.45;;;;;;;4.75;80.33;101082.66;5019623;28;20042;-72
2021/04/02 05:14:52;;;;;;;26.27;9.80;;;;;;;4.79;79.65;101077.31;5026521;28;20057;-72
2021/04/02 05:17:21;;;;;;;25.25;10.50;;;;;;;4.76;79.69;101080.88;5042880;28;20045;-72
2021/04/02 05:19:48;;;;;;;22.10;10.90;;;;;;;4.49;80.82;101086.72;5020625;28;20046;-74
2021/04/02 05:22:15;;;;;;;25.45;10.65;;;;;;;4.59;80.38;101079.47;5021141;28;20053;-73
2021/04/02 05:24:41;;;;;;;19.67;10.63;;;;;;;4.66;80.19;101082.84;5052723;28;20049;-73
2021/04/02 05:27:08;;;;;;;21.27;11.82;;;;;;;4.61;80.04;101087.38;5052981;28;20057;-74
2021/04/02 05:29:34;;;;;;;19.27;10.23;;;;;;;4.64;80.47;101092.59;5037454;28;20053;-74
2021/04/02 05:32:00;;;;;;;24.75;10.18;;;;;;;4.70;79.97;101081.91;5037413;28;20061;-72
2021/04/02 05:34:26;;;;;;;19.55;10.13;;;;;;;4.73;80.37;101092.41;5034166;28;20073;-74
2021/04/02 05:36:53;;;;;;;16.95;9.88;;;;;;;4.72;79.74;101095.06;5003834;28;20940;-72
2021/04/02 05:39:19;;;;;;;18.02;9.30;;;;;;;4.72;79.74;101093.31;5017280;28;20119;-73
2021/04/02 05:42:05;;;;;;;26.92;11.18;;;;;;;4.61;80.45;101104.13;5013148;28;20061;-74
2021/04/02 05:44:34;;;;;;;19.65;9.43;;;;;;;4.62;80.13;101083.81;4997685;28;20058;-73
2021/04/02 05:47:05;;;;;;;15.77;10.25;;;;;;;4.37;81.38;101092.28;5031407;28;20049;-74
2021/04/02 05:49:32;;;;;;;17.63;10.32;;;;;;;4.53;81.11;101102.53;5033799;28;20504;-74
2021/04/02 05:52:00;;;;;;;20.83;11.02;;;;;;;4.56;80.78;101098.03;5017331;28;20061;-72
2021/04/02 05:54:38;;;;;;;23.83;11.38;;;;;;;4.61;80.60;101101.47;5017905;28;20057;-73
2021/04/02 05:57:05;;;;;;;22.52;12.38;;;;;;;4.54;80.65;101096.34;5018025;28;20050;-73
2021/04/02 05:59:31;;;;;;;21.67;12.18;;;;;;;4.59;81.16;101118.25;5017167;28;20442;-71
2021/04/02 06:01:57;;;;;;;24.05;11.13;;;;;;;4.72;80.45;101114.47;5016156;28;20050;-74
2021/04/02 06:04:23;;;;;;;27.02;10.30;;;;;;;4.68;80.30;101106.63;5012771;28;20057;-74
2021/04/02 06:06:49;;;;;;;22.60;9.70;;;;;;;4.82;79.95;101115.13;5015968;28;20065;-73
2021/04/02 06:09:16;;;;;;;18.08;8.40;;;;;;;4.93;79.76;101111.38;5025489;28;20091;-73
2021/04/02 06:11:42;;;;;;;18.10;9.95;;;;;;;4.83;80.06;101114.22;5018970;28;20470;-71
2021/04/02 06:14:09;;;;;;;21.60;9.10;;;;;;;4.93;79.80;101121.94;5022496;28;20053;-74
2021/04/02 06:16:35;;;;;;;17.30;8.75;;;;;;;4.97;79.30;101119.19;5016797;28;20382;-70
2021/04/02 06:19:07;;;;;;;17.95;8.73;;;;;;;4.99;79.12;101109.47;5015065;28;20460;-71
2021/04/02 06:21:45;;;;;;;22.90;10.15;;;;;;;5.07;79.39;101125.16;5015471;28;20049;-74
2021/04/02 06:24:13;;;;;;;26.23;10.65;;;;;;;5.03;79.43;101111.13;5015706;28;20060;-73
2021/04/02 06:26:39;;;;;;;17.70;9.70;;;;;;;5.15;79.09;101123.22;5016602;28;20045;-72
2021/04/02 06:29:06;;;;;;;23.33;11.77;;;;;;;4.95;79.32;101125.47;5015258;28;20057;-74
2021/04/02 06:31:35;;;;;;;23.27;9.57;;;;;;;5.12;79.51;101135.66;5015103;28;20054;-71
2021/04/02 06:34:05;;;;;;;23.88;10.68;;;;;;;5.06;79.28;101141.94;5015883;28;20058;-73
2021/04/02 06:36:32;;;;;;;23.85;10.32;;;;;;;4.97;79.35;101135.06;5016106;28;20398;-73
2021/04/02 06:39:02;;;;;;;21.30;10.50;;;;;;;5.20;79.22;101141.66;5014653;28;20454;-73
2021/04/02 06:41:30;;;;;;;25.45;10.13;;;;;;;5.13;78.55;101116.22;5014489;28;20100;-73
2021/04/02 06:44:07;;;;;;;26.63;9.93;;;;;;;5.30;78.34;101140.50;5015661;28;20061;-73
2021/04/02 06:46:37;;;;;;;23.10;10.77;;;;;;;5.44;77.81;101144.63;5015630;28;20061;-73
2021/04/02 06:49:14;;;;;;;20.23;10.93;;;;;;;5.32;78.24;101151.06;5015761;28;20049;-74
2021/04/02 06:51:43;;;;;;;23.75;10.98;;;;;;;5.26;78.88;101143.28;5016158;28;20046;-71
2021/04/02 06:54:26;;;;;;;20.50;10.38;;;;;;;5.27;78.90;101147.66;5015972;28;20053;-71
2021/04/02 06:57:03;;;;;;;21.10;9.98;;;;;;;5.36;78.73;101141.28;5015026;28;20454;-73
2021/04/02 06:59:33;;;;;;;20.85;9.90;;;;;;;5.45;77.79;101143.69;5016131;28;20339;-73
2021/04/02 07:02:04;;;;;;;20.60;9.80;;;;;;;5.44;78.05;101126.97;5015870;28;20137;-73
2021/04/02 07:04:31;;;;;;;;;;;;;;;5.46;77.98;101142.81;5016592;28;20049;-71
2021/04/02 07:06:59;;;;;;;20.10;8.70;;;;;;;5.61;77.74;101138.91;5016018;28;19975;-72
2021/04/02 07:09:28;;;;;;;19.48;9.07;;;;;;;5.56;77.54;101143.47;5015888;28;20391;-72
2021/04/02 07:12:01;;;;;;;19.95;8.85;;;;;;;5.71;77.51;101139.56;5016047;28;20468;-73
2021/04/02 07:14:30;;;;;;;18.85;8.68;;;;;;;5.85;76.96;101147.16;5017494;28;20402;-72
2021/04/02 07:16:57;;;;;;;22.15;8.90;;;;;;;5.76;77.09;101142.97;5018487;28;20057;-73
2021/04/02 07:19:24;;;;;;;16.27;8.45;;;;;;;5.71;77.23;101151.03;5019156;28;20079;-73
2021/04/02 07:21:52;;;;;;;18.77;9.85;;;;;;;5.75;77.21;101151.81;5017461;28;20061;-73
2021/04/02 07:24:22;;;;;;;21.85;10.05;;;;;;;5.73;77.12;101135.13;5017893;28;20458;-72
2021/04/02 07:26:50;;;;;;;30.30;11.50;;;;;;;5.74;76.99;101150.09;5016549;28;20399;-73
2021/04/02 07:29:19;;;;;;;28.70;12.43;;;;;;;5.85;77.57;101145.38;5015838;28;20053;-72
2021/04/02 07:31:46;;;;;;;24.77;12.77;;;;;;;5.93;76.82;101145.19;5016038;28;20435;-73
2021/04/02 07:34:14;;;;;;;32.75;17.50;;;;;;;5.92;76.96;101142.56;5018499;28;20053;-71
2021/04/02 07:36:41;;;;;;;48.05;21.20;;;;;;;5.88;76.28;101140.94;5017240;28;20056;-72
2021/04/02 07:39:08;;;;;;;45.50;23.25;;;;;;;5.98;76.25;101142.41;5015906;28;20104;-74
2021/04/02 07:41:44;;;;;;;46.00;23.98;;;;;;;5.94;76.07;101146.06;5016321;28;20140;-72
2021/04/02 07:44:14;;;;;;;50.45;26.25;;;;;;;5.93;76.75;101145.19;5017294;28;20079;-74
2021/04/02 07:47:08;;;;;;;48.47;24.05;;;;;;;6.07;75.98;101155.47;5015985;28;20054;-74
2021/04/02 07:49:47;;;;;;;56.78;27.45;;;;;;;6.15;75.43;101139.34;5031286;28;20114;-74
2021/04/02 07:52:13;;;;;;;45.72;23.50;;;;;;;6.13;75.46;101138.53;5015941;28;20050;-73
2021/04/02 07:54:41;;;;;;;41.90;20.40;;;;;;;6.14;74.77;101142.06;5016521;28;20057;-73
2021/04/02 07:57:18;;;;;;;31.80;14.93;;;;;;;6.23;74.41;101145.31;5017480;28;20351;-74
2021/04/02 07:59:46;;;;;;;35.30;14.50;;;;;;;6.42;74.54;101146.63;5017203;28;20112;-73
2021/04/02 08:02:18;;;;;;;31.15;14.68;;;;;;;6.49;74.41;101150.84;5018069;28;20354;-73
2021/04/02 08:04:56;;;;;;;28.42;12.80;;;;;;;6.58;73.68;101147.91;5018392;28;20411;-74
2021/04/02 08:07:40;;;;;;;25.67;11.40;;;;;;;6.68;73.33;101152.94;5018142;28;20054;-73
2021/04/02 08:10:08;;;;;;;31.10;12.50;;;;;;;6.73;73.13;101151.91;5016597;28;20140;-74
2021/04/02 08:12:35;;;;;;;29.10;12.52;;;;;;;6.74;72.84;101150.13;5015902;28;20340;-73
2021/04/02 08:15:12;;;;;;;27.55;12.80;;;;;;;6.88;72.65;101161.22;5016207;28;20081;-75
2021/04/02 08:17:39;;;;;;;24.40;12.48;;;;;;;6.67;72.71;101152.09;5014044;28;20058;-72
2021/04/02 08:20:10;;;;;;;27.30;12.32;;;;;;;6.83;72.79;101156.94;5014616;28;20431;-73
2021/04/02 08:22:37;;;;;;;29.95;12.98;;;;;;;6.66;73.03;101169.78;5015332;28;20050;-73
2021/04/02 08:25:12;;;;;;;29.80;13.60;;;;;;;6.71;72.78;101160.81;5030394;28;20057;-75
2021/04/02 08:27:43;;;;;;;28.60;13.05;;;;;;;6.81;73.19;101158.78;5014905;28;20053;-74
2021/04/02 08:30:12;;;;;;;28.95;11.45;;;;;;;6.86;72.41;101165.69;5017558;28;20050;-73
2021/04/02 08:32:42;;;;;;;25.50;11.73;;;;;;;6.76;73.10;101157.13;5034063;28;20050;-74
2021/04/02 08:35:10;;;;;;;23.30;10.85;;;;;;;6.97;72.50;101169.81;5018689;28;20058;-74
2021/04/02 08:37:38;;;;;;;24.35;10.48;;;;;;;6.78;73.19;101176.53;5018462;28;20061;-74
2021/04/02 08:40:09;;;;;;;26.60;10.75;;;;;;;7.11;72.29;101174.69;5018429;28;20060;-74
2021/04/02 08:42:36;;;;;;;25.33;9.55;;;;;;;7.20;71.18;101175.28;5033947;28;20050;-74
2021/04/02 08:45:09;;;;;;;19.50;9.45;;;;;;;7.14;71.23;101171.97;5017139;28;20084;-74
2021/04/02 08:47:39;;;;;;;19.80;8.80;;;;;;;7.22;71.66;101169.94;5017680;28;20076;-75
2021/04/02 08:50:07;;;;;;;24.15;8.68;;;;;;;7.27;70.78;101175.09;5018842;28;20053;-74
2021/04/02 08:52:34;;;;;;;19.60;8.35;;;;;;;7.18;71.22;101182.44;5017511;28;20173;-73
2021/04/02 08:55:04;;;;;;;21.52;8.30;;;;;;;7.34;70.82;101187.28;5017158;28;20061;-73
2021/04/02 08:57:31;;;;;;;14.00;7.35;;;;;;;7.45;69.96;101177.19;5018152;28;20049;-73
2021/04/02 09:00:00;;;;;;;17.52;7.57;;;;;;;7.67;69.57;101192.44;5016985;28;20104;-73
2021/04/02 09:02:29;;;;;;;16.67;7.82;;;;;;;7.34;70.59;101184.63;5018200;28;20078;-74
2021/04/02 09:04:56;;;;;;;17.27;7.60;;;;;;;7.31;70.26;101174.94;5017221;28;20120;-73
2021/04/02 09:07:23;;;;;;;18.88;8.57;;;;;;;7.33;70.29;101178.44;5017002;28;20432;-72
2021/04/02 09:09:49;;;;;;;22.65;8.32;;;;;;;7.14;71.07;101170.16;5017844;28;20096;-73
2021/04/02 09:12:20;;;;;;;18.67;7.82;;;;;;;7.14;71.14;101174.63;5016608;28;20050;-73
2021/04/02 09:14:48;;;;;;;;;;;;;;;7.33;70.49;101180.22;5018464;28;20076;-72
2021/04/02 09:17:19;;;;;;;19.23;7.88;;;;;;;7.22;71.31;101177.03;5033133;28;19944;-73
2021/04/02 09:19:49;;;;;;;22.13;8.85;;;;;;;7.29;70.43;101173.25;5017648;28;20058;-74
2021/04/02 09:22:19;;;;;;;25.23;7.97;;;;;;;7.66;69.65;101176.53;5017490;28;20394;-74
2021/04/02 09:24:45;;;;;;;15.32;7.60;;;;;;;7.70;69.46;101176.41;5017480;28;20159;-74
2021/04/02 09:27:14;;;;;;;20.38;8.48;;;;;;;7.80;68.89;101176.94;5017737;28;20053;-74
2021/04/02 09:30:02;;;;;;;18.92;7.88;;;;;;;7.89;68.48;101181.09;5016442;28;20089;-72
2021/04/02 09:32:30;;;;;;;17.35;7.72;;;;;;;7.70;68.21;101181.72;5016538;28;20148;-72
2021/04/02 09:35:00;;;;;;;21.65;8.68;;;;;;;7.64;69.21;101173.94;5017446;28;20049;-74
2021/04/02 09:37:28;;;;;;;20.63;8.23;;;;;;;7.53;69.40;101192.91;5017556;28;20053;-73
2021/04/02 09:40:06;;;;;;;17.90;9.23;;;;;;;7.28;70.77;101191.00;5016510;28;20053;-72
2021/04/02 09:42:35;;;;;;;18.20;8.65;;;;;;;7.20;71.11;101191.22;5017680;28;20455;-73
2021/04/02 09:45:04;;;;;;;21.80;9.05;;;;;;;7.36;70.98;101190.78;5017409;28;20116;-72
2021/04/02 09:47:42;;;;;;;18.00;8.40;;;;;;;7.28;71.10;101193.66;5017322;28;20053;-72
2021/04/02 09:50:10;;;;;;;19.30;8.68;;;;;;;7.02;71.41;101197.06;5020876;28;20116;-74
2021/04/02 09:52:42;;;;;;;20.77;8.25;;;;;;;6.95;71.98;101184.91;5037993;28;20050;-72
2021/04/02 09:55:10;;;;;;;12.85;7.30;;;;;;;7.15;70.70;101192.28;5021616;28;20478;-74
2021/04/02 09:57:39;;;;;;;15.98;8.65;;;;;;;7.09;71.21;101185.38;5017978;28;20535;-74
2021/04/02 10:00:09;;;;;;;19.33;8.70;;;;;;;7.02;71.56;101186.44;5016541;28;20049;-74
2021/04/02 10:02:36;;;;;;;15.27;7.38;;;;;;;7.02;71.40;101189.09;5017801;28;20050;-74
2021/04/02 10:05:06;;;;;;;20.42;8.15;;;;;;;7.12;71.19;101187.03;5032862;28;20370;-73
2021/04/02 10:07:33;;;;;;;17.15;9.43;;;;;;;7.09;71.08;101188.03;5018491;28;20439;-73
2021/04/02 10:09:59;;;;;;;19.25;8.13;;;;;;;6.90;70.84;101195.66;5016347;28;20054;-72
2021/04/02 10:12:26;;;;;;;16.38;8.02;;;;;;;7.02;70.74;101190.00;5017023;28;20137;-73
2021/04/02 10:14:52;;;;;;;16.65;8.18;;;;;;;7.10;70.50;101186.22;5016677;28;20053;-72
2021/04/02 10:17:18;;;;;;;17.00;7.60;;;;;;;7.16;70.25;101192.25;5015850;28;20057;-72
2021/04/02 10:19:44;;;;;;;15.18;7.57;;;;;;;7.12;70.44;101192.34;5016868;28;20494;-73
2021/04/02 10:22:13;;;;;;;12.30;7.07;;;;;;;7.16;70.42;101189.59;5015534;28;20045;-74
2021/04/02 10:24:39;;;;;;;15.98;7.10;;;;;;;7.13;70.30;101194.97;5016770;28;20050;-74
2021/04/02 10:27:06;;;;;;;17.23;6.80;;;;;;;7.03;71.03;101197.03;5015822;28;20054;-75
2021/04/02 10:29:32;;;;;;;13.52;7.57;;;;;;;7.11;70.98;101188.84;5016515;28;20116;-74
2021/04/02 10:31:58;;;;;;;27.73;12.23;;;;;;;6.98;71.54;101206.06;5015290;28;20419;-73
2021/04/02 10:34:24;;;;;;;28.00;14.07;;;;;;;6.75;72.02;101181.06;5016439;28;20054;-72
2021/04/02 10:36:52;;;;;;;22.48;11.68;;;;;;;6.72;72.26;101195.28;5016251;28;20451;-73
2021/04/02 10:39:18;;;;;;;25.90;14.07;;;;;;;6.71;72.88;101203.28;5017491;28;20050;-73
2021/04/02 10:41:44;;;;;;;24.63;11.02;;;;;;;6.51;73.31;101191.44;5016093;28;20054;-73
2021/04/02 10:44:10;;;;;;;21.40;11.55;;;;;;;6.41;74.43;101197.88;5016267;28;20058;-74
2021/04/02 10:46:36;;;;;;;17.20;9.68;;;;;;;6.40;73.80;101191.72;5016203;28;20053;-72
2021/04/02 10:49:03;;;;;;;17.63;10.35;;;;;;;6.42;74.03;101192.53;5016262;28;20053;-71
2021/04/02 10:51:30;;;;;;;15.73;9.60;;;;;;;6.55;73.39;101186.91;5014910;28;20050;-72
2021/04/02 10:54:02;;;;;;;15.23;9.30;;;;;;;6.58;73.45;101198.31;5016123;28;20387;-73
2021/04/02 10:56:30;;;;;;;14.20;7.57;;;;;;;6.50;73.14;101195.84;5015924;28;20119;-73
2021/04/02 10:58:56;;;;;;;12.43;8.02;;;;;;;6.68;73.07;101198.03;5016290;28;20112;-73
2021/04/02 11:01:23;;;;;;;12.25;5.90;;;;;;;6.82;71.74;101189.69;5015981;28;20041;-72
2021/04/02 11:03:49;;;;;;;13.43;6.13;;;;;;;6.97;71.45;101186.59;4998716;28;20058;-72
2021/04/02 11:06:19;;;;;;;15.23;8.43;;;;;;;7.09;70.49;101182.72;5014998;28;20391;-74
2021/04/02 11:08:45;;;;;;;10.65;5.57;;;;;;;7.12;70.38;101193.25;5014648;28;20084;-73
2021/04/02 11:11:12;;;;;;;15.07;7.20;;;;;;;7.33;69.60;101194.38;5015791;28;20134;-73
2021/04/02 11:13:38;;;;;;;13.45;7.93;;;;;;;7.23;69.98;101190.25;5016071;28;20050;-72
2021/04/02 11:16:05;;;;;;;13.02;6.97;;;;;;;7.11;70.13;101212.75;5015977;28;20049;-73
2021/04/02 11:18:31;;;;;;;17.27;7.03;;;;;;;6.97;70.19;101177.78;5030907;28;20061;-72
2021/04/02 11:20:59;;;;;;;13.98;6.72;;;;;;;7.09;70.88;101203.97;5015616;28;20446;-73
2021/04/02 11:23:26;;;;;;;12.27;7.55;;;;;;;7.08;71.00;101196.88;5015500;28;20200;-73
2021/04/02 11:25:54;;;;;;;16.10;8.15;;;;;;;7.11;70.97;101203.91;5015565;28;20320;-73
2021/04/02 11:28:22;;;;;;;15.85;9.60;;;;;;;7.12;71.03;101195.00;5030790;28;20050;-74
2021/04/02 11:30:48;;;;;;;17.85;10.88;;;;;;;7.20;70.65;101214.25;5014281;28;20053;-73